1987 ELSIE (1987053S15127)


On this page: IBTrACS data - Map and Plots - Positions - Intensities - Original source data

Summary

Start Feb 21
End Feb 27
Basin SI
LMI 110 kt
Sources jtwc_sh
bom
td9636
neumann
In WMO? Yes
Previous storm 1987 MISSING (SP)
Previous in basin 1987 CLOTILDA (SI)
Concurrent storms 1987 CLOTILDA (SI)
1987 ELSIE (SI)
1987 WINI (SP)
Next in basin Missing
Next storm 1987 WINI (SP)

top of page IBTrACS Data: File Access

top of page HURSAT Data: File Access

Image of storm

top of page Plots:

Map of storm track will not appear if FTP is down
Time series of cyclone Maximum Sustained Wind will not appear if FTP is down
Time series of cyclone Minimum Central Pressure will not appear if FTP is down

top of page Track Data:Position

jtwc_sh bom td9636 neumann
Date Lat Lon Lat Lon Lat Lon Lat Lon
1987-02-21 12:00:00 -15.1 127.4 -15.1 127.4
1987-02-21 18:00:00 -15.2 126.3 -15.2 126.2
1987-02-22 00:00:00 -15.3 125.1 -15.0 125.0 -15.3 125.1 -15.0 125.0
1987-02-22 06:00:00 -15.4 124.0 -15.1 123.8 -15.4 124.0 -15.1 123.8
1987-02-22 12:00:00 -15.6 123.0 -15.4 123.2 -15.6 123.0 -15.4 123.2
1987-02-22 18:00:00 -15.8 122.1 -15.7 122.8 -15.7 122.1 -15.7 122.8
1987-02-23 00:00:00 -15.8 121.4 -15.4 122.3 -15.8 121.4 -15.4 122.3
1987-02-23 06:00:00 -15.8 120.9 -15.0 122.0 -15.8 120.9 -15.0 122.0
1987-02-23 12:00:00 -15.8 120.7 -15.4 121.7 -15.8 120.7 -15.4 121.7
1987-02-23 18:00:00 -15.9 120.9 -15.8 121.5 -15.9 120.9 -15.8 121.5
1987-02-24 00:00:00 -16.2 121.2 -16.3 121.5 -16.2 121.2 -16.3 121.5
1987-02-24 06:00:00 -16.6 121.5 -16.7 121.5 -16.6 121.5 -16.7 121.5
1987-02-24 12:00:00 -17.2 121.6 -17.4 121.5 -17.2 121.6 -17.4 121.5
1987-02-24 18:00:00 -17.9 121.4 -17.9 121.4 -17.9 121.4 -17.9 121.4
1987-02-25 00:00:00 -18.6 121.2 -18.7 121.0 -18.6 121.2 -18.7 121.0
1987-02-25 06:00:00 -19.3 121.0 -19.3 120.8 -19.2 121.0 -19.3 120.8
1987-02-25 12:00:00 -19.9 121.0 -20.0 120.9 -19.9 121.0 -20.0 120.9
1987-02-25 18:00:00 -20.7 121.3 -20.5 121.0 -21.0 121.4 -20.5 121.0
1987-02-26 00:00:00 -22.0 121.8 -21.1 121.2 -22.0 121.8 -21.1 121.2
1987-02-26 06:00:00 -21.7 121.6 -22.7 121.9 -21.7 121.6
1987-02-26 12:00:00 -22.7 122.1 -23.2 122.1 -22.7 122.1
1987-02-26 18:00:00 -23.3 123.1 -23.4 122.6 -23.3 123.1
1987-02-27 00:00:00 -23.5 123.5 -23.5 123.5 -23.5 123.5
1987-02-27 06:00:00 -23.8 124.9 -23.8 124.9 -23.8 124.9

top of pageTrack Data:Intensity

jtwc_sh bom td9636 neumann
Date Wind Pres Wind Pres Wind Pres Wind Pres
1987-02-21 12:00:00 25. 25.
1987-02-21 18:00:00 25. 25.
1987-02-22 00:00:00 25. 35. 995. 25. 40. 995.
1987-02-22 06:00:00 30. 37. 993. 25. 40. 993.
1987-02-22 12:00:00 30. 47. 986. 30. 55. 986.
1987-02-22 18:00:00 30. 54. 980. 30. 60. 980.
1987-02-23 00:00:00 35. 56. 978. 35. 65. 978.
1987-02-23 06:00:00 35. 58. 976. 35. 65. 976.
1987-02-23 12:00:00 40. 72. 964. 40. 80. 964.
1987-02-23 18:00:00 40. 78. 957. 40. 90. 957.
1987-02-24 00:00:00 45. 82. 953. 45. 95. 953.
1987-02-24 06:00:00 45. 84. 951. 45. 100. 951.
1987-02-24 12:00:00 45. 86. 949. 45. 100. 949.
1987-02-24 18:00:00 50. 87. 947. 45. 100. 947.
1987-02-25 00:00:00 55. 89. 945. 55. 105. 945.
1987-02-25 06:00:00 60. 91. 941. 55. 110. 941.
1987-02-25 12:00:00 55. 91. 941. 55. 80. 941.
1987-02-25 18:00:00 45. 80. 955. 55. 55. 955.
1987-02-26 00:00:00 40. 66. 970. 40. 45. 970.
1987-02-26 06:00:00 54. 980. 40. 35. 980.
1987-02-26 12:00:00 49. 984. 30. 984.
1987-02-26 18:00:00 45. 988. 30. 988.
1987-02-27 00:00:00 39. 992. 30. 992.
1987-02-27 06:00:00 29. 998. 30. 998.

top of page Links to source data

Source Source file Format
jtwc_sh bsh181987.txt ATCF
bom Newcyclonedatabase-08repair.csv:Line=14809:ELSIE CSV file (from Excel file)
td9636 cons_worldwide_trop_cyclone_18710101-19891231-006:Line=12948 TD 9636
neumann tracks.sh:Storm=804:ELSIE:BSH181987:BM761 HURDAT